sensor_id;sensor_type;location;lat;lon;timestamp;pressure;altitude;pressure_sealevel;temperature;humidity
61484;BME280;47349;55.640;37.692;2022-09-09T00:00:34;99971.88;;;6.76;76.58
61484;BME280;47349;55.640;37.692;2022-09-09T00:03:23;99968.25;;;6.67;75.75
61484;BME280;47349;55.640;37.692;2022-09-09T00:06:02;99965.75;;;6.65;76.18
61484;BME280;47349;55.640;37.692;2022-09-09T00:09:02;99982.16;;;6.61;77.05
61484;BME280;47349;55.640;37.692;2022-09-09T00:12:02;99970.66;;;6.60;76.62
61484;BME280;47349;55.640;37.692;2022-09-09T00:14:50;99971.38;;;6.62;76.93
61484;BME280;47349;55.640;37.692;2022-09-09T00:17:24;99972.19;;;6.73;76.96
61484;BME280;47349;55.640;37.692;2022-09-09T00:20:23;99976.22;;;6.77;77.20
61484;BME280;47349;55.640;37.692;2022-09-09T00:25:54;99978.03;;;6.76;76.09
61484;BME280;47349;55.640;37.692;2022-09-09T00:28:27;99981.41;;;6.78;76.34
61484;BME280;47349;55.640;37.692;2022-09-09T00:30:56;99984.22;;;6.77;76.18
61484;BME280;47349;55.640;37.692;2022-09-09T00:33:26;99978.59;;;6.80;76.53
61484;BME280;47349;55.640;37.692;2022-09-09T00:35:57;99981.66;;;6.85;76.84
61484;BME280;47349;55.640;37.692;2022-09-09T00:38:25;99988.69;;;6.86;76.72
61484;BME280;47349;55.640;37.692;2022-09-09T00:41:17;99984.50;;;6.83;76.15
61484;BME280;47349;55.640;37.692;2022-09-09T00:43:54;99984.19;;;6.86;76.08
61484;BME280;47349;55.640;37.692;2022-09-09T00:55:24;99996.56;;;6.78;76.56
61484;BME280;47349;55.640;37.692;2022-09-09T00:57:54;99992.94;;;6.69;76.14
61484;BME280;47349;55.640;37.692;2022-09-09T01:17:30;100008.75;;;6.70;76.66
61484;BME280;47349;55.640;37.692;2022-09-09T01:20:17;100007.94;;;6.70;76.42
61484;BME280;47349;55.640;37.692;2022-09-09T01:23:21;100013.09;;;6.72;76.60
61484;BME280;47349;55.640;37.692;2022-09-09T01:26:28;100017.47;;;6.73;76.42
61484;BME280;47349;55.640;37.692;2022-09-09T01:29:01;100017.47;;;6.73;77.23
61484;BME280;47349;55.640;37.692;2022-09-09T01:31:40;100021.22;;;6.80;77.30
61484;BME280;47349;55.640;37.692;2022-09-09T01:34:14;100033.56;;;6.81;76.26
61484;BME280;47349;55.640;37.692;2022-09-09T01:39:17;100026.00;;;6.66;76.29
61484;BME280;47349;55.640;37.692;2022-09-09T01:41:48;100029.38;;;6.68;76.60
61484;BME280;47349;55.640;37.692;2022-09-09T01:44:19;100031.06;;;6.69;76.41
61484;BME280;47349;55.640;37.692;2022-09-09T01:47:05;100049.72;;;6.69;77.02
61484;BME280;47349;55.640;37.692;2022-09-09T01:50:01;100015.09;;;6.50;76.41
61484;BME280;47349;55.640;37.692;2022-09-09T01:52:31;100026.31;;;6.63;76.66
61484;BME280;47349;55.640;37.692;2022-09-09T01:55:01;100033.88;;;6.58;76.70
61484;BME280;47349;55.640;37.692;2022-09-09T02:00:16;100050.13;;;6.55;77.06
61484;BME280;47349;55.640;37.692;2022-09-09T02:05:49;100037.25;;;6.60;77.23
61484;BME280;47349;55.640;37.692;2022-09-09T02:11:11;100044.78;;;6.75;77.37
61484;BME280;47349;55.640;37.692;2022-09-09T02:14:01;100043.41;;;6.61;76.67
61484;BME280;47349;55.640;37.692;2022-09-09T02:16:42;100053.78;;;6.54;77.55
61484;BME280;47349;55.640;37.692;2022-09-09T02:19:23;100049.72;;;6.50;77.58
61484;BME280;47349;55.640;37.692;2022-09-09T02:22:00;100059.38;;;6.51;77.25
61484;BME280;47349;55.640;37.692;2022-09-09T02:24:30;100067.22;;;6.43;76.35
61484;BME280;47349;55.640;37.692;2022-09-09T02:27:20;100055.72;;;6.42;76.48
61484;BME280;47349;55.640;37.692;2022-09-09T02:29:51;100057.13;;;6.37;77.15
61484;BME280;47349;55.640;37.692;2022-09-09T02:32:32;100058.53;;;6.41;76.83
61484;BME280;47349;55.640;37.692;2022-09-09T02:35:09;100065.69;;;6.40;77.54
61484;BME280;47349;55.640;37.692;2022-09-09T02:37:41;100062.88;;;6.42;77.59
61484;BME280;47349;55.640;37.692;2022-09-09T02:40:11;100073.94;;;6.37;77.56
61484;BME280;47349;55.640;37.692;2022-09-09T02:42:44;100073.69;;;6.40;77.57
61484;BME280;47349;55.640;37.692;2022-09-09T02:45:15;100072.00;;;6.39;77.37
61484;BME280;47349;55.640;37.692;2022-09-09T02:48:26;100078.44;;;6.37;77.31
61484;BME280;47349;55.640;37.692;2022-09-09T02:56:23;100087.41;;;6.36;78.66
61484;BME280;47349;55.640;37.692;2022-09-09T02:58:55;100094.56;;;6.35;77.62
61484;BME280;47349;55.640;37.692;2022-09-09T03:01:23;100098.06;;;6.36;78.01
61484;BME280;47349;55.640;37.692;2022-09-09T03:03:55;100082.66;;;6.30;77.34
61484;BME280;47349;55.640;37.692;2022-09-09T03:06:23;100095.13;;;6.29;77.36
61484;BME280;47349;55.640;37.692;2022-09-09T03:09:00;100093.41;;;6.28;78.22
61484;BME280;47349;55.640;37.692;2022-09-09T03:11:29;100093.28;;;6.30;78.15
61484;BME280;47349;55.640;37.692;2022-09-09T03:14:01;100097.50;;;6.32;79.08
61484;BME280;47349;55.640;37.692;2022-09-09T03:16:31;100095.78;;;6.22;77.67
61484;BME280;47349;55.640;37.692;2022-09-09T03:19:00;100103.22;;;6.28;78.27
61484;BME280;47349;55.640;37.692;2022-09-09T03:21:28;100104.06;;;6.28;79.34
61484;BME280;47349;55.640;37.692;2022-09-09T03:23:56;100101.13;;;6.22;78.69
61484;BME280;47349;55.640;37.692;2022-09-09T03:26:24;100100.84;;;6.15;78.97
61484;BME280;47349;55.640;37.692;2022-09-09T03:28:52;100107.25;;;6.12;79.19
61484;BME280;47349;55.640;37.692;2022-09-09T03:31:22;100105.59;;;6.11;79.24
61484;BME280;47349;55.640;37.692;2022-09-09T03:33:51;100107.25;;;6.12;79.02
61484;BME280;47349;55.640;37.692;2022-09-09T03:36:20;100120.56;;;6.12;79.50
61484;BME280;47349;55.640;37.692;2022-09-09T03:38:47;100114.25;;;6.13;79.49
61484;BME280;47349;55.640;37.692;2022-09-09T03:41:15;100110.22;;;6.09;79.26
61484;BME280;47349;55.640;37.692;2022-09-09T03:43:42;100110.66;;;6.14;79.53
61484;BME280;47349;55.640;37.692;2022-09-09T03:46:10;100104.47;;;6.24;79.67
61484;BME280;47349;55.640;37.692;2022-09-09T03:48:38;100119.91;;;6.30;79.24
61484;BME280;47349;55.640;37.692;2022-09-09T03:51:06;100129.72;;;6.29;78.94
61484;BME280;47349;55.640;37.692;2022-09-09T03:53:34;100114.56;;;6.20;79.91
61484;BME280;47349;55.640;37.692;2022-09-09T03:56:04;100131.94;;;6.14;79.71
61484;BME280;47349;55.640;37.692;2022-09-09T03:58:34;100134.84;;;6.11;80.01
61484;BME280;47349;55.640;37.692;2022-09-09T04:01:09;100133.63;;;6.15;80.05
61484;BME280;47349;55.640;37.692;2022-09-09T04:03:37;100140.19;;;6.11;80.18
61484;BME280;47349;55.640;37.692;2022-09-09T04:06:08;100136.72;;;6.21;80.45
61484;BME280;47349;55.640;37.692;2022-09-09T04:08:36;100135.16;;;6.28;79.64
61484;BME280;47349;55.640;37.692;2022-09-09T04:11:09;100125.25;;;6.30;80.01
61484;BME280;47349;55.640;37.692;2022-09-09T04:13:50;100133.06;;;6.22;79.44
61484;BME280;47349;55.640;37.692;2022-09-09T04:16:18;100139.06;;;6.24;79.46
61484;BME280;47349;55.640;37.692;2022-09-09T04:18:59;100142.47;;;6.26;80.58
61484;BME280;47349;55.640;37.692;2022-09-09T04:21:27;100133.91;;;6.22;79.22
61484;BME280;47349;55.640;37.692;2022-09-09T04:23:55;100142.22;;;6.38;79.83
61484;BME280;47349;55.640;37.692;2022-09-09T04:26:24;100149.91;;;6.51;79.67
61484;BME280;47349;55.640;37.692;2022-09-09T04:28:51;100149.66;;;6.54;79.14
61484;BME280;47349;55.640;37.692;2022-09-09T04:31:21;100147.97;;;6.43;78.64
61484;BME280;47349;55.640;37.692;2022-09-09T04:33:53;100145.72;;;6.49;78.99
61484;BME280;47349;55.640;37.692;2022-09-09T04:36:21;100149.25;;;6.59;78.82
61484;BME280;47349;55.640;37.692;2022-09-09T04:38:56;100146.28;;;6.52;78.69
61484;BME280;47349;55.640;37.692;2022-09-09T04:41:24;100144.50;;;6.62;78.08
61484;BME280;47349;55.640;37.692;2022-09-09T04:43:53;100153.84;;;6.66;77.66
61484;BME280;47349;55.640;37.692;2022-09-09T04:46:22;100146.44;;;6.70;78.29
61484;BME280;47349;55.640;37.692;2022-09-09T04:48:51;100157.25;;;6.68;77.91
61484;BME280;47349;55.640;37.692;2022-09-09T04:51:21;100164.09;;;6.81;77.55
61484;BME280;47349;55.640;37.692;2022-09-09T04:54:03;100163.41;;;6.88;76.91
61484;BME280;47349;55.640;37.692;2022-09-09T04:56:32;100162.84;;;6.85;76.35
61484;BME280;47349;55.640;37.692;2022-09-09T04:59:01;100160.59;;;6.80;76.25
61484;BME280;47349;55.640;37.692;2022-09-09T05:01:37;100166.06;;;6.88;76.47
61484;BME280;47349;55.640;37.692;2022-09-09T05:04:21;100160.75;;;6.88;75.72
61484;BME280;47349;55.640;37.692;2022-09-09T05:06:50;100174.50;;;6.93;76.34
61484;BME280;47349;55.640;37.692;2022-09-09T05:09:17;100167.19;;;6.95;75.72
61484;BME280;47349;55.640;37.692;2022-09-09T05:11:46;100171.56;;;7.06;75.70
61484;BME280;47349;55.640;37.692;2022-09-09T05:14:23;100170.13;;;7.21;74.71
61484;BME280;47349;55.640;37.692;2022-09-09T05:16:54;100167.31;;;7.23;74.50
61484;BME280;47349;55.640;37.692;2022-09-09T05:19:37;100173.44;;;7.43;74.20
61484;BME280;47349;55.640;37.692;2022-09-09T05:22:19;100178.19;;;7.49;73.49
61484;BME280;47349;55.640;37.692;2022-09-09T05:24:49;100190.59;;;7.40;73.65
61484;BME280;47349;55.640;37.692;2022-09-09T05:27:21;100189.59;;;7.51;73.87
61484;BME280;47349;55.640;37.692;2022-09-09T05:29:58;100182.69;;;7.58;73.45
61484;BME280;47349;55.640;37.692;2022-09-09T05:32:30;100186.88;;;7.70;73.17
61484;BME280;47349;55.640;37.692;2022-09-09T05:35:16;100188.13;;;7.76;72.48
61484;BME280;47349;55.640;37.692;2022-09-09T05:37:59;100181.59;;;7.98;72.19
61484;BME280;47349;55.640;37.692;2022-09-09T05:40:30;100173.88;;;7.95;71.04
61484;BME280;47349;55.640;37.692;2022-09-09T05:43:11;100179.44;;;8.02;70.79
61484;BME280;47349;55.640;37.692;2022-09-09T05:45:40;100183.66;;;8.04;69.62
61484;BME280;47349;55.640;37.692;2022-09-09T05:48:28;100177.75;;;8.01;69.36
61484;BME280;47349;55.640;37.692;2022-09-09T05:51:23;100172.97;;;8.04;69.43
61484;BME280;47349;55.640;37.692;2022-09-09T05:53:56;100160.63;;;8.03;69.29
61484;BME280;47349;55.640;37.692;2022-09-09T05:56:45;100180.78;;;8.15;69.51
61484;BME280;47349;55.640;37.692;2022-09-09T05:59:17;100184.97;;;8.28;68.58
61484;BME280;47349;55.640;37.692;2022-09-09T06:01:46;100184.13;;;8.27;68.21
61484;BME280;47349;55.640;37.692;2022-09-09T06:04:20;100187.69;;;8.18;66.19
61484;BME280;47349;55.640;37.692;2022-09-09T06:06:49;100184.84;;;8.19;66.19
61484;BME280;47349;55.640;37.692;2022-09-09T06:09:18;100203.44;;;8.11;66.63
61484;BME280;47349;55.640;37.692;2022-09-09T06:11:46;100203.81;;;8.16;65.72
61484;BME280;47349;55.640;37.692;2022-09-09T06:14:31;100199.03;;;8.20;66.38
61484;BME280;47349;55.640;37.692;2022-09-09T06:17:12;100203.81;;;8.16;66.08
61484;BME280;47349;55.640;37.692;2022-09-09T06:19:39;100217.28;;;8.24;65.81
61484;BME280;47349;55.640;37.692;2022-09-09T06:22:08;100204.59;;;8.36;65.43
61484;BME280;47349;55.640;37.692;2022-09-09T06:24:53;100195.56;;;8.47;65.44
61484;BME280;47349;55.640;37.692;2022-09-09T06:27:37;100200.31;;;8.53;63.85
61484;BME280;47349;55.640;37.692;2022-09-09T06:30:05;100196.13;;;8.68;63.39
61484;BME280;47349;55.640;37.692;2022-09-09T06:32:33;100203.06;;;8.61;63.45
61484;BME280;47349;55.640;37.692;2022-09-09T06:35:16;100212.94;;;8.79;63.21
61484;BME280;47349;55.640;37.692;2022-09-09T06:37:46;100212.94;;;8.61;63.27
61484;BME280;47349;55.640;37.692;2022-09-09T06:40:30;100201.84;;;8.73;62.84
61484;BME280;47349;55.640;37.692;2022-09-09T06:43:02;100199.59;;;8.96;61.08
61484;BME280;47349;55.640;37.692;2022-09-09T06:45:39;100216.53;;;9.05;60.00
61484;BME280;47349;55.640;37.692;2022-09-09T06:48:09;100198.81;;;9.04;60.42
61484;BME280;47349;55.640;37.692;2022-09-09T06:50:37;100220.44;;;8.93;61.24
61484;BME280;47349;55.640;37.692;2022-09-09T06:53:05;100223.56;;;8.88;61.19
61484;BME280;47349;55.640;37.692;2022-09-09T06:55:41;100217.75;;;8.93;61.23
61484;BME280;47349;55.640;37.692;2022-09-09T06:58:13;100198.13;;;9.20;60.26
61484;BME280;47349;55.640;37.692;2022-09-09T07:00:44;100212.72;;;9.25;57.57
61484;BME280;47349;55.640;37.692;2022-09-09T07:03:15;100207.81;;;9.39;58.35
61484;BME280;47349;55.640;37.692;2022-09-09T07:05:44;100218.50;;;9.39;54.72
61484;BME280;47349;55.640;37.692;2022-09-09T07:08:22;100233.09;;;9.44;55.10
61484;BME280;47349;55.640;37.692;2022-09-09T07:11:05;100227.13;;;9.33;56.61
61484;BME280;47349;55.640;37.692;2022-09-09T07:13:48;100220.56;;;9.27;56.64
61484;BME280;47349;55.640;37.692;2022-09-09T07:16:17;100234.31;;;9.32;56.95
61484;BME280;47349;55.640;37.692;2022-09-09T07:18:48;100228.13;;;9.32;55.47
61484;BME280;47349;55.640;37.692;2022-09-09T07:21:31;100235.78;;;9.26;57.83
61484;BME280;47349;55.640;37.692;2022-09-09T07:24:01;100237.28;;;9.47;57.40
61484;BME280;47349;55.640;37.692;2022-09-09T07:26:43;100253.03;;;9.50;56.89
61484;BME280;47349;55.640;37.692;2022-09-09T07:29:24;100240.97;;;9.46;52.74
61484;BME280;47349;55.640;37.692;2022-09-09T07:31:52;100229.13;;;9.48;54.78
61484;BME280;47349;55.640;37.692;2022-09-09T07:34:26;100256.63;;;9.59;56.56
61484;BME280;47349;55.640;37.692;2022-09-09T07:37:07;100254.91;;;9.75;56.75
61484;BME280;47349;55.640;37.692;2022-09-09T07:39:36;100262.19;;;9.65;55.86
61484;BME280;47349;55.640;37.692;2022-09-09T07:42:04;100262.63;;;9.78;55.32
61484;BME280;47349;55.640;37.692;2022-09-09T07:44:34;100259.13;;;9.78;55.12
61484;BME280;47349;55.640;37.692;2022-09-09T07:47:13;100262.69;;;9.87;54.86
61484;BME280;47349;55.640;37.692;2022-09-09T07:49:49;100244.03;;;10.03;54.42
61484;BME280;47349;55.640;37.692;2022-09-09T07:52:23;100253.91;;;10.02;54.29
61484;BME280;47349;55.640;37.692;2022-09-09T07:54:57;100263.56;;;9.95;53.71
61484;BME280;47349;55.640;37.692;2022-09-09T07:57:38;100272.63;;;9.76;54.01
61484;BME280;47349;55.640;37.692;2022-09-09T08:00:22;100277.63;;;9.71;54.65
61484;BME280;47349;55.640;37.692;2022-09-09T08:03:04;100277.91;;;9.86;54.51
61484;BME280;47349;55.640;37.692;2022-09-09T08:05:34;100275.94;;;9.70;53.94
61484;BME280;47349;55.640;37.692;2022-09-09T08:08:01;100282.19;;;9.97;53.00
61484;BME280;47349;55.640;37.692;2022-09-09T08:10:35;100273.22;;;10.14;53.24
61484;BME280;47349;55.640;37.692;2022-09-09T08:13:02;100284.47;;;9.92;52.93
61484;BME280;47349;55.640;37.692;2022-09-09T08:15:44;100278.41;;;9.82;53.49
61484;BME280;47349;55.640;37.692;2022-09-09T08:18:13;100274.56;;;9.66;54.19
61484;BME280;47349;55.640;37.692;2022-09-09T08:20:55;100277.31;;;9.74;54.36
61484;BME280;47349;55.640;37.692;2022-09-09T08:23:24;100282.47;;;9.68;54.72
61484;BME280;47349;55.640;37.692;2022-09-09T08:25:53;100284.34;;;9.75;54.36
61484;BME280;47349;55.640;37.692;2022-09-09T08:28:29;100282.81;;;10.17;53.83
61484;BME280;47349;55.640;37.692;2022-09-09T08:31:14;100279.69;;;10.29;52.80
61484;BME280;47349;55.640;37.692;2022-09-09T08:33:44;100290.97;;;10.15;53.30
61484;BME280;47349;55.640;37.692;2022-09-09T08:36:31;100282.94;;;10.15;53.50
61484;BME280;47349;55.640;37.692;2022-09-09T08:39:07;100288.59;;;10.30;53.00
61484;BME280;47349;55.640;37.692;2022-09-09T08:47:16;100298.78;;;10.26;51.24
61484;BME280;47349;55.640;37.692;2022-09-09T08:55:57;100277.66;;;10.58;49.01
61484;BME280;47349;55.640;37.692;2022-09-09T08:58:48;100273.97;;;10.93;49.39
61484;BME280;47349;55.640;37.692;2022-09-09T09:01:58;100279.38;;;11.17;49.30
61484;BME280;47349;55.640;37.692;2022-09-09T09:07:56;100304.13;;;10.95;49.10
61484;BME280;47349;55.640;37.692;2022-09-09T09:19:23;100296.56;;;10.22;50.96
61484;BME280;47349;55.640;37.692;2022-09-09T09:22:30;100295.41;;;10.59;50.48
61484;BME280;47349;55.640;37.692;2022-09-09T09:25:10;100303.94;;;10.96;50.43
61484;BME280;47349;55.640;37.692;2022-09-09T09:27:59;100286.91;;;11.30;49.16
61484;BME280;47349;55.640;37.692;2022-09-09T09:30:59;100291.28;;;11.31;48.86
61484;BME280;47349;55.640;37.692;2022-09-09T09:33:33;100292.44;;;11.12;49.88
61484;BME280;47349;55.640;37.692;2022-09-09T09:36:10;100289.84;;;10.86;50.56
61484;BME280;47349;55.640;37.692;2022-09-09T09:38:56;100282.94;;;10.75;51.08
61484;BME280;47349;55.640;37.692;2022-09-09T09:41:42;100272.47;;;10.56;50.11
61484;BME280;47349;55.640;37.692;2022-09-09T09:44:31;100295.72;;;10.90;50.20
61484;BME280;47349;55.640;37.692;2022-09-09T09:47:19;100308.06;;;10.74;50.35
61484;BME280;47349;55.640;37.692;2022-09-09T09:50:17;100281.72;;;10.62;51.29
61484;BME280;47349;55.640;37.692;2022-09-09T09:53:27;100302.84;;;10.65;51.50
61484;BME280;47349;55.640;37.692;2022-09-09T09:56:05;100311.25;;;10.78;51.01
61484;BME280;47349;55.640;37.692;2022-09-09T09:58:51;100292.75;;;10.59;50.81
61484;BME280;47349;55.640;37.692;2022-09-09T10:01:32;100309.56;;;10.77;50.23
61484;BME280;47349;55.640;37.692;2022-09-09T10:04:22;100296.88;;;10.87;49.91
61484;BME280;47349;55.640;37.692;2022-09-09T10:07:20;100292.81;;;11.33;49.95
61484;BME280;47349;55.640;37.692;2022-09-09T10:09:58;100287.78;;;11.55;49.49
61484;BME280;47349;55.640;37.692;2022-09-09T10:13:05;100302.22;;;11.62;49.10
61484;BME280;47349;55.640;37.692;2022-09-09T10:15:47;100293.00;;;11.81;48.51
61484;BME280;47349;55.640;37.692;2022-09-09T10:18:49;100281.41;;;11.72;49.23
61484;BME280;47349;55.640;37.692;2022-09-09T10:22:02;100284.78;;;11.58;48.66
61484;BME280;47349;55.640;37.692;2022-09-09T10:36:59;100303.88;;;10.72;50.65
61484;BME280;47349;55.640;37.692;2022-09-09T10:42:09;100308.41;;;11.38;49.30
61484;BME280;47349;55.640;37.692;2022-09-09T10:45:18;100294.00;;;11.80;47.86
61484;BME280;47349;55.640;37.692;2022-09-09T10:48:08;100303.91;;;11.63;45.95
61484;BME280;47349;55.640;37.692;2022-09-09T10:50:43;100295.31;;;11.27;46.77
61484;BME280;47349;55.640;37.692;2022-09-09T10:56:04;100313.63;;;11.31;48.61
61484;BME280;47349;55.640;37.692;2022-09-09T10:58:59;100296.66;;;11.23;48.61
61484;BME280;47349;55.640;37.692;2022-09-09T11:01:51;100306.03;;;11.19;49.09
61484;BME280;47349;55.640;37.692;2022-09-09T11:04:38;100301.19;;;11.22;49.79
61484;BME280;47349;55.640;37.692;2022-09-09T11:07:10;100316.38;;;11.05;49.78
61484;BME280;47349;55.640;37.692;2022-09-09T11:10:06;100312.03;;;11.04;51.83
61484;BME280;47349;55.640;37.692;2022-09-09T11:12:37;100306.88;;;11.19;51.69
61484;BME280;47349;55.640;37.692;2022-09-09T11:15:26;100306.56;;;11.39;51.29
61484;BME280;47349;55.640;37.692;2022-09-09T11:17:58;100305.44;;;11.66;49.10
61484;BME280;47349;55.640;37.692;2022-09-09T11:20:28;100297.91;;;11.86;48.74
61484;BME280;47349;55.640;37.692;2022-09-09T11:23:17;100291.47;;;12.19;47.29
61484;BME280;47349;55.640;37.692;2022-09-09T11:25:52;100301.84;;;12.30;46.75
61484;BME280;47349;55.640;37.692;2022-09-09T11:35:21;100294.81;;;12.29;45.67
61484;BME280;47349;55.640;37.692;2022-09-09T11:40:59;100319.16;;;11.79;48.95
61484;BME280;47349;55.640;37.692;2022-09-09T11:46:32;100307.41;;;11.39;49.66
61484;BME280;47349;55.640;37.692;2022-09-09T11:49:06;100317.63;;;11.36;49.74
61484;BME280;47349;55.640;37.692;2022-09-09T11:51:34;100304.22;;;11.44;50.05
61484;BME280;47349;55.640;37.692;2022-09-09T11:54:30;100301.59;;;11.85;47.83
61484;BME280;47349;55.640;37.692;2022-09-09T11:56:57;100297.84;;;12.18;47.00
61484;BME280;47349;55.640;37.692;2022-09-09T11:59:31;100298.03;;;12.64;45.50
61484;BME280;47349;55.640;37.692;2022-09-09T12:02:02;100304.44;;;13.02;44.60
61484;BME280;47349;55.640;37.692;2022-09-09T12:04:56;100289.56;;;13.46;43.97
61484;BME280;47349;55.640;37.692;2022-09-09T12:10:34;100280.19;;;13.79;41.08
61484;BME280;47349;55.640;37.692;2022-09-09T12:13:24;100288.72;;;14.21;41.38
61484;BME280;47349;55.640;37.692;2022-09-09T12:22:04;100279.75;;;13.91;41.24
61484;BME280;47349;55.640;37.692;2022-09-09T12:24:40;100277.59;;;13.17;42.18
61484;BME280;47349;55.640;37.692;2022-09-09T12:27:24;100292.94;;;13.08;42.27
61484;BME280;47349;55.640;37.692;2022-09-09T12:30:10;100280.94;;;13.19;42.78
61484;BME280;47349;55.640;37.692;2022-09-09T12:32:40;100295.25;;;13.51;43.69
61484;BME280;47349;55.640;37.692;2022-09-09T12:35:20;100275.38;;;13.52;42.81
61484;BME280;47349;55.640;37.692;2022-09-09T12:37:54;100279.19;;;13.95;42.26
61484;BME280;47349;55.640;37.692;2022-09-09T12:40:32;100284.19;;;14.36;42.32
61484;BME280;47349;55.640;37.692;2022-09-09T12:43:17;100279.66;;;14.66;40.23
61484;BME280;47349;55.640;37.692;2022-09-09T12:45:49;100290.59;;;14.50;39.50
61484;BME280;47349;55.640;37.692;2022-09-09T12:48:32;100295.78;;;14.22;40.11
61484;BME280;47349;55.640;37.692;2022-09-09T12:51:02;100272.53;;;14.95;39.86
61484;BME280;47349;55.640;37.692;2022-09-09T12:53:37;100280.66;;;15.16;39.07
61484;BME280;47349;55.640;37.692;2022-09-09T12:56:32;100292.44;;;14.79;40.03
61484;BME280;47349;55.640;37.692;2022-09-09T12:59:26;100278.31;;;14.18;41.53
61484;BME280;47349;55.640;37.692;2022-09-09T13:02:23;100276.56;;;13.26;41.63
61484;BME280;47349;55.640;37.692;2022-09-09T13:04:52;100295.78;;;13.15;42.80
61484;BME280;47349;55.640;37.692;2022-09-09T13:07:22;100293.41;;;13.20;42.13
61484;BME280;47349;55.640;37.692;2022-09-09T13:10:05;100285.66;;;13.25;41.99
61484;BME280;47349;55.640;37.692;2022-09-09T13:12:42;100298.69;;;12.74;42.87
61484;BME280;47349;55.640;37.692;2022-09-09T13:15:20;100297.31;;;12.31;43.77
61484;BME280;47349;55.640;37.692;2022-09-09T13:18:11;100296.16;;;12.25;44.97
61484;BME280;47349;55.640;37.692;2022-09-09T13:20:53;100293.44;;;12.33;44.89
61484;BME280;47349;55.640;37.692;2022-09-09T13:23:34;100295.44;;;12.87;43.73
61484;BME280;47349;55.640;37.692;2022-09-09T13:26:24;100296.03;;;13.59;42.45
61484;BME280;47349;55.640;37.692;2022-09-09T13:29:17;100299.03;;;14.02;41.81
61484;BME280;47349;55.640;37.692;2022-09-09T13:31:48;100296.34;;;14.32;41.08
61484;BME280;47349;55.640;37.692;2022-09-09T13:40:24;100281.53;;;14.51;42.32
61484;BME280;47349;55.640;37.692;2022-09-09T13:42:58;100284.28;;;14.72;41.87
61484;BME280;47349;55.640;37.692;2022-09-09T13:45:31;100280.44;;;14.96;41.74
61484;BME280;47349;55.640;37.692;2022-09-09T13:48:18;100289.50;;;14.59;41.20
61484;BME280;47349;55.640;37.692;2022-09-09T13:51:04;100293.03;;;14.59;41.20
61484;BME280;47349;55.640;37.692;2022-09-09T13:53:39;100280.63;;;14.21;42.16
61484;BME280;47349;55.640;37.692;2022-09-09T13:56:07;100283.88;;;14.90;41.48
61484;BME280;47349;55.640;37.692;2022-09-09T13:58:41;100280.34;;;15.26;39.96
61484;BME280;47349;55.640;37.692;2022-09-09T14:01:25;100266.25;;;15.09;40.23
61484;BME280;47349;55.640;37.692;2022-09-09T14:03:55;100272.75;;;15.14;40.48
61484;BME280;47349;55.640;37.692;2022-09-09T14:06:40;100268.66;;;15.19;40.69
61484;BME280;47349;55.640;37.692;2022-09-09T14:09:26;100273.06;;;15.05;40.17
61484;BME280;47349;55.640;37.692;2022-09-09T14:12:11;100272.94;;;14.32;41.69
61484;BME280;47349;55.640;37.692;2022-09-09T14:14:48;100271.41;;;14.15;42.31
61484;BME280;47349;55.640;37.692;2022-09-09T14:17:36;100266.69;;;14.32;42.33
61484;BME280;47349;55.640;37.692;2022-09-09T14:20:08;100277.19;;;14.27;42.23
61484;BME280;47349;55.640;37.692;2022-09-09T14:22:39;100276.50;;;14.48;42.15
61484;BME280;47349;55.640;37.692;2022-09-09T14:25:22;100268.91;;;14.87;41.81
61484;BME280;47349;55.640;37.692;2022-09-09T14:27:55;100267.91;;;15.10;41.24
61484;BME280;47349;55.640;37.692;2022-09-09T14:31:01;100273.25;;;15.46;40.83
61484;BME280;47349;55.640;37.692;2022-09-09T14:33:35;100279.13;;;15.71;39.74
61484;BME280;47349;55.640;37.692;2022-09-09T14:36:19;100268.63;;;15.61;39.73
61484;BME280;47349;55.640;37.692;2022-09-09T14:38:51;100266.66;;;15.49;39.78
61484;BME280;47349;55.640;37.692;2022-09-09T14:41:34;100260.84;;;15.66;39.08
61484;BME280;47349;55.640;37.692;2022-09-09T14:44:20;100256.22;;;15.24;40.30
61484;BME280;47349;55.640;37.692;2022-09-09T14:47:05;100260.91;;;15.37;39.29
61484;BME280;47349;55.640;37.692;2022-09-09T14:49:37;100266.31;;;15.15;39.65
61484;BME280;47349;55.640;37.692;2022-09-09T14:52:10;100282.19;;;15.04;40.30
61484;BME280;47349;55.640;37.692;2022-09-09T14:54:53;100274.09;;;14.00;40.60
61484;BME280;47349;55.640;37.692;2022-09-09T14:57:21;100268.75;;;13.77;40.80
61484;BME280;47349;55.640;37.692;2022-09-09T14:59:55;100266.34;;;13.82;40.54
61484;BME280;47349;55.640;37.692;2022-09-09T15:02:34;100253.91;;;13.12;41.62
61484;BME280;47349;55.640;37.692;2022-09-09T15:05:04;100268.44;;;13.03;42.33
61484;BME280;47349;55.640;37.692;2022-09-09T15:08:24;100285.56;;;13.10;42.74
61484;BME280;47349;55.640;37.692;2022-09-09T15:11:16;100262.16;;;12.49;44.37
61484;BME280;47349;55.640;37.692;2022-09-09T15:13:57;100283.59;;;12.57;44.21
61484;BME280;47349;55.640;37.692;2022-09-09T15:16:39;100278.00;;;12.27;44.81
61484;BME280;47349;55.640;37.692;2022-09-09T15:19:20;100272.19;;;11.83;45.41
61484;BME280;47349;55.640;37.692;2022-09-09T15:21:49;100274.19;;;11.73;46.57
61484;BME280;47349;55.640;37.692;2022-09-09T15:24:24;100288.16;;;11.85;46.62
61484;BME280;47349;55.640;37.692;2022-09-09T15:26:58;100290.50;;;11.96;46.80
61484;BME280;47349;55.640;37.692;2022-09-09T15:29:42;100291.34;;;12.52;46.24
61484;BME280;47349;55.640;37.692;2022-09-09T15:32:15;100295.66;;;12.77;44.72
61484;BME280;47349;55.640;37.692;2022-09-09T15:34:43;100288.53;;;12.84;44.78